Time;durP1;ratioP1;P1;durP2;ratioP2;P2;SDS_P1;SDS_P2;PMS_P1;PMS_P2;Temp;Humidity;BMP_temperature;BMP_pressure;BME280_temperature;BME280_humidity;BME280_pressure;Samples;Min_cycle;Max_cycle;Signal;HPM_P1;HPM_P2
2023/01/29 00:00:39;;;;;;;11.60;7.22;;;;;;;;;;5029131;28;20045;-77
2023/01/29 00:03:05;;;;;;;11.02;7.63;;;;;;;;;;5033080;28;20049;-77
2023/01/29 00:05:31;;;;;;;11.77;8.00;;;;;;;;;;5028930;28;20503;-77
2023/01/29 00:07:57;;;;;;;13.15;7.75;;;;;;;;;;5016684;28;20046;-77
2023/01/29 00:10:24;;;;;;;15.93;8.82;;;;;;;;;;5019036;28;20049;-77
2023/01/29 00:12:50;;;;;;;13.15;8.43;;;;;;;;;;5016170;28;20038;-77
2023/01/29 00:15:17;;;;;;;12.27;8.50;;;;;;;;;;5030993;28;20045;-77
2023/01/29 00:17:43;;;;;;;14.52;8.82;;;;;;;;;;5031538;28;20073;-77
2023/01/29 00:20:10;;;;;;;16.10;9.07;;;;;;;;;;5028654;28;20054;-76
2023/01/29 00:22:36;;;;;;;16.65;11.13;;;;;;;;;;5025421;28;20073;-77
2023/01/29 00:25:02;;;;;;;14.15;8.52;;;;;;;;;;5027924;28;20045;-76
2023/01/29 00:27:29;;;;;;;13.70;8.45;;;;;;;;;;5023933;28;20500;-77
2023/01/29 00:30:08;;;;;;;15.60;9.07;;;;;;;;;;5023231;28;20060;-76
2023/01/29 00:32:34;;;;;;;12.55;8.32;;;;;;;;;;5021920;28;20109;-77
2023/01/29 00:35:00;;;;;;;15.27;9.05;;;;;;;;;;5027065;28;20049;-76
2023/01/29 00:37:26;;;;;;;14.48;8.85;;;;;;;;;;5026870;28;20489;-76
2023/01/29 00:39:52;;;;;;;14.90;9.82;;;;;;;;;;5027939;28;20086;-76
2023/01/29 00:45:11;;;;;;;13.73;9.38;;;;;;;;;;5010156;28;20545;-76
2023/01/29 00:47:37;;;;;;;16.10;9.93;;;;;;;;;;5022993;28;20057;-76
2023/01/29 00:50:05;;;;;;;14.55;9.93;;;;;;;;;;5021633;28;20099;-76
2023/01/29 00:52:31;;;;;;;20.58;10.70;;;;;;;;;;5025060;28;20046;-77
2023/01/29 00:55:00;;;;;;;14.90;9.80;;;;;;;;;;5025131;28;20499;-76
2023/01/29 00:57:28;;;;;;;14.77;10.15;;;;;;;;;;5014506;28;20138;-76
2023/01/29 00:59:54;;;;;;;14.65;9.48;;;;;;;;;;5014323;28;20045;-76
2023/01/29 01:05:06;;;;;;;18.55;10.50;;;;;;;;;;5043714;28;20088;-76
2023/01/29 01:07:32;;;;;;;16.95;10.82;;;;;;;;;;5031236;28;20534;-76
2023/01/29 01:12:43;;;;;;;16.70;10.88;;;;;;;;;;5022686;28;20042;-76
2023/01/29 01:15:09;;;;;;;18.80;11.43;;;;;;;;;;5027189;28;20048;-76
2023/01/29 01:17:36;;;;;;;18.55;12.15;;;;;;;;;;5026758;28;20889;-76
2023/01/29 01:20:02;;;;;;;18.00;10.90;;;;;;;;;;5025345;28;20089;-77
2023/01/29 01:22:28;;;;;;;17.50;11.15;;;;;;;;;;5020700;28;20052;-77
2023/01/29 01:24:54;;;;;;;19.98;11.65;;;;;;;;;;5025699;28;20042;-76
2023/01/29 01:27:20;;;;;;;21.27;12.40;;;;;;;;;;5019604;28;20392;-76
2023/01/29 01:29:46;;;;;;;20.25;12.27;;;;;;;;;;5023751;28;20485;-76
2023/01/29 01:32:13;;;;;;;20.08;12.57;;;;;;;;;;5032725;28;20081;-77
2023/01/29 01:34:39;;;;;;;19.55;13.00;;;;;;;;;;5028712;28;20099;-76
2023/01/29 01:37:05;;;;;;;19.17;12.85;;;;;;;;;;5033038;28;20049;-76
2023/01/29 01:39:31;;;;;;;20.88;13.13;;;;;;;;;;5026265;28;20046;-76
2023/01/29 01:41:57;;;;;;;23.50;14.05;;;;;;;;;;5023954;28;20053;-77
2023/01/29 01:44:42;;;;;;;23.30;13.68;;;;;;;;;;5016380;28;20057;-76
2023/01/29 01:47:08;;;;;;;23.45;13.73;;;;;;;;;;5033285;28;20443;-77
2023/01/29 01:49:34;;;;;;;22.95;13.80;;;;;;;;;;5032524;28;20450;-76
2023/01/29 01:52:00;;;;;;;20.50;13.10;;;;;;;;;;5023246;28;20469;-77
2023/01/29 01:54:30;;;;;;;23.10;13.95;;;;;;;;;;5028328;28;20133;-76
2023/01/29 01:57:14;;;;;;;24.17;13.82;;;;;;;;;;5022434;28;20220;-77
2023/01/29 01:59:42;;;;;;;25.23;13.73;;;;;;;;;;5028139;28;20565;-77
2023/01/29 02:10:31;;;;;;;22.98;14.27;;;;;;;;;;5030295;28;20045;-76
2023/01/29 02:12:57;;;;;;;24.05;14.40;;;;;;;;;;5026299;28;20133;-76
2023/01/29 02:15:23;;;;;;;26.40;16.20;;;;;;;;;;5035527;28;20042;-76
2023/01/29 02:17:50;;;;;;;26.48;15.13;;;;;;;;;;5038171;28;20042;-77
2023/01/29 02:20:25;;;;;;;28.55;15.30;;;;;;;;;;5025165;28;20061;-77
2023/01/29 02:22:55;;;;;;;27.52;14.68;;;;;;;;;;5034046;28;20064;-76
2023/01/29 02:25:39;;;;;;;27.08;15.02;;;;;;;;;;5022276;28;20496;-76
2023/01/29 02:28:21;;;;;;;27.17;15.57;;;;;;;;;;5026908;28;20112;-76
2023/01/29 02:30:55;;;;;;;26.70;15.35;;;;;;;;;;5028472;28;20116;-76
2023/01/29 02:33:38;;;;;;;30.98;16.60;;;;;;;;;;5025087;28;20057;-76
2023/01/29 02:36:10;;;;;;;29.73;16.33;;;;;;;;;;5036885;28;20077;-76
2023/01/29 02:38:43;;;;;;;33.40;16.73;;;;;;;;;;5016850;28;20117;-76
2023/01/29 02:41:14;;;;;;;32.95;17.05;;;;;;;;;;5019965;28;20050;-76
2023/01/29 02:43:43;;;;;;;30.58;16.17;;;;;;;;;;5027437;28;20037;-76
2023/01/29 02:46:09;;;;;;;32.25;16.33;;;;;;;;;;5028573;28;20124;-76
2023/01/29 02:48:45;;;;;;;30.02;15.85;;;;;;;;;;5028538;28;20424;-76
2023/01/29 02:51:18;;;;;;;27.08;15.77;;;;;;;;;;5025587;28;20034;-76
2023/01/29 02:53:57;;;;;;;29.13;15.32;;;;;;;;;;5029274;28;20433;-77
2023/01/29 02:56:27;;;;;;;33.67;16.70;;;;;;;;;;5030045;28;20037;-77
2023/01/29 02:59:05;;;;;;;31.08;15.77;;;;;;;;;;5024206;28;20042;-76
2023/01/29 03:01:38;;;;;;;33.13;16.60;;;;;;;;;;5024618;28;20108;-76
2023/01/29 03:04:08;;;;;;;35.53;18.13;;;;;;;;;;5039396;28;20050;-77
2023/01/29 03:06:42;;;;;;;35.42;17.33;;;;;;;;;;5020663;28;20485;-77
2023/01/29 03:09:15;;;;;;;34.65;17.15;;;;;;;;;;5020895;28;20033;-77
2023/01/29 03:11:45;;;;;;;30.38;17.15;;;;;;;;;;5038398;28;20056;-77
2023/01/29 03:14:23;;;;;;;34.70;17.60;;;;;;;;;;5042409;28;20061;-77
2023/01/29 03:16:49;;;;;;;35.80;17.27;;;;;;;;;;5034528;28;20472;-76
2023/01/29 03:19:18;;;;;;;31.67;16.92;;;;;;;;;;5033920;28;20052;-76
2023/01/29 03:21:58;;;;;;;34.60;18.45;;;;;;;;;;5019226;28;20060;-76
2023/01/29 03:32:57;;;;;;;32.58;16.67;;;;;;;;;;5016745;28;20511;-76
2023/01/29 03:35:35;;;;;;;28.90;16.75;;;;;;;;;;5032675;28;20037;-76
2023/01/29 03:38:09;;;;;;;31.90;17.08;;;;;;;;;;5023757;28;20054;-76
2023/01/29 03:40:43;;;;;;;32.28;16.70;;;;;;;;;;5026244;28;20046;-76
2023/01/29 03:43:23;;;;;;;31.67;15.95;;;;;;;;;;5021585;28;20103;-76
2023/01/29 03:45:57;;;;;;;32.13;16.77;;;;;;;;;;5022950;28;20073;-76
2023/01/29 03:48:35;;;;;;;32.92;16.70;;;;;;;;;;5028872;28;20041;-75
2023/01/29 03:51:07;;;;;;;32.33;16.38;;;;;;;;;;5035781;28;20045;-77
2023/01/29 03:53:42;;;;;;;33.72;17.55;;;;;;;;;;5033702;28;20041;-76
2023/01/29 03:56:39;;;;;;;34.83;17.17;;;;;;;;;;5029309;28;20112;-76
2023/01/29 03:59:10;;;;;;;31.95;17.90;;;;;;;;;;5002189;28;20068;-76
2023/01/29 04:01:41;;;;;;;31.83;17.48;;;;;;;;;;5024133;28;20159;-76
2023/01/29 04:04:07;;;;;;;28.83;16.83;;;;;;;;;;5021209;28;20080;-76
2023/01/29 04:06:35;;;;;;;30.80;16.50;;;;;;;;;;5016964;28;20077;-76
2023/01/29 04:09:13;;;;;;;32.10;16.85;;;;;;;;;;5027903;28;20045;-76
2023/01/29 04:11:42;;;;;;;31.67;17.08;;;;;;;;;;5015835;28;20042;-76
2023/01/29 04:14:09;;;;;;;33.00;17.35;;;;;;;;;;5033231;28;20045;-76
2023/01/29 04:16:37;;;;;;;28.23;15.68;;;;;;;;;;5036381;28;20046;-76
2023/01/29 04:19:04;;;;;;;30.27;16.48;;;;;;;;;;5015411;28;20050;-76
2023/01/29 04:21:35;;;;;;;33.92;17.13;;;;;;;;;;5033502;28;20095;-76
2023/01/29 04:24:02;;;;;;;30.10;16.65;;;;;;;;;;5034509;28;20049;-76
2023/01/29 04:26:28;;;;;;;32.35;17.42;;;;;;;;;;5016361;28;20176;-76
2023/01/29 04:28:59;;;;;;;33.50;18.73;;;;;;;;;;5030019;28;20124;-76
2023/01/29 04:31:29;;;;;;;29.80;16.88;;;;;;;;;;5029838;28;20045;-76
2023/01/29 04:34:07;;;;;;;28.85;16.10;;;;;;;;;;5014583;28;20045;-76
2023/01/29 04:36:36;;;;;;;31.10;16.80;;;;;;;;;;5030154;28;20045;-76
2023/01/29 04:39:07;;;;;;;32.45;17.25;;;;;;;;;;5026751;28;20064;-76
2023/01/29 04:41:37;;;;;;;31.85;17.90;;;;;;;;;;5018400;28;20388;-76
2023/01/29 04:44:09;;;;;;;30.40;17.05;;;;;;;;;;5021454;28;20042;-76
2023/01/29 04:46:44;;;;;;;30.10;16.58;;;;;;;;;;5029300;28;20041;-76
2023/01/29 04:49:13;;;;;;;32.57;16.97;;;;;;;;;;5032730;28;20069;-76
2023/01/29 04:51:39;;;;;;;30.80;17.10;;;;;;;;;;5021627;28;20049;-76
2023/01/29 04:54:17;;;;;;;29.48;16.02;;;;;;;;;;5032980;28;20048;-76
2023/01/29 04:56:43;;;;;;;30.50;16.90;;;;;;;;;;5023359;28;20042;-76
2023/01/29 04:59:12;;;;;;;30.00;16.65;;;;;;;;;;5041700;28;20042;-76
2023/01/29 05:01:38;;;;;;;28.23;16.92;;;;;;;;;;5028726;28;20401;-76
2023/01/29 05:04:09;;;;;;;31.45;17.52;;;;;;;;;;5018887;28;20507;-76
2023/01/29 05:06:36;;;;;;;28.90;15.60;;;;;;;;;;5018893;28;20077;-76
2023/01/29 05:09:02;;;;;;;30.20;16.35;;;;;;;;;;5028871;28;20560;-76
2023/01/29 05:11:30;;;;;;;30.30;16.98;;;;;;;;;;5015783;28;20132;-76
2023/01/29 05:13:56;;;;;;;30.90;17.40;;;;;;;;;;5033311;28;20046;-76
2023/01/29 05:16:25;;;;;;;30.20;17.77;;;;;;;;;;5018458;28;20045;-76
2023/01/29 05:18:51;;;;;;;27.67;15.98;;;;;;;;;;5017070;28;20048;-76
2023/01/29 05:21:19;;;;;;;30.83;17.05;;;;;;;;;;5032729;28;20092;-76
2023/01/29 05:23:52;;;;;;;30.95;17.88;;;;;;;;;;5029260;28;20049;-76
2023/01/29 05:29:04;;;;;;;31.00;18.05;;;;;;;;;;5028302;28;20049;-76
2023/01/29 05:31:30;;;;;;;31.10;16.85;;;;;;;;;;5030798;28;20504;-76
2023/01/29 05:33:56;;;;;;;31.38;17.50;;;;;;;;;;5033376;28;20092;-76
2023/01/29 05:36:24;;;;;;;31.42;16.73;;;;;;;;;;5025868;28;20101;-76
2023/01/29 05:38:50;;;;;;;31.05;17.38;;;;;;;;;;5021527;28;20072;-76
2023/01/29 05:41:16;;;;;;;29.92;16.52;;;;;;;;;;5018146;28;20045;-76
2023/01/29 05:43:42;;;;;;;30.67;17.27;;;;;;;;;;5014815;28;20038;-76
2023/01/29 05:46:08;;;;;;;27.65;16.45;;;;;;;;;;5011923;28;20049;-76
2023/01/29 05:48:34;;;;;;;26.17;15.88;;;;;;;;;;5022392;28;20400;-76
2023/01/29 05:51:01;;;;;;;27.20;15.55;;;;;;;;;;5034709;28;20052;-76
2023/01/29 05:53:28;;;;;;;29.95;15.90;;;;;;;;;;5025528;28;20116;-76
2023/01/29 05:55:56;;;;;;;27.80;15.65;;;;;;;;;;5031390;28;20472;-76
2023/01/29 05:58:22;;;;;;;26.25;15.82;;;;;;;;;;5028986;28;20053;-76
2023/01/29 06:00:48;;;;;;;27.73;15.98;;;;;;;;;;5019451;28;20073;-76
2023/01/29 06:03:15;;;;;;;28.27;15.52;;;;;;;;;;5025995;28;20120;-76
2023/01/29 06:05:41;;;;;;;27.15;16.55;;;;;;;;;;5023983;28;20120;-76
2023/01/29 06:08:07;;;;;;;24.55;15.35;;;;;;;;;;5032429;28;20042;-76
2023/01/29 06:10:33;;;;;;;26.38;15.48;;;;;;;;;;5035602;28;20115;-76
2023/01/29 06:12:59;;;;;;;26.85;15.57;;;;;;;;;;5038926;28;20068;-77
2023/01/29 06:15:26;;;;;;;28.65;15.93;;;;;;;;;;5032986;28;20050;-76
2023/01/29 06:17:56;;;;;;;28.85;15.73;;;;;;;;;;5041232;28;20041;-77
2023/01/29 06:20:23;;;;;;;26.35;16.05;;;;;;;;;;5034788;28;20050;-77
2023/01/29 06:22:49;;;;;;;27.75;15.57;;;;;;;;;;5032187;28;20484;-76
2023/01/29 06:25:15;;;;;;;28.05;16.50;;;;;;;;;;5028487;28;20041;-77
2023/01/29 06:27:41;;;;;;;26.25;16.00;;;;;;;;;;5023810;28;20480;-76
2023/01/29 06:30:07;;;;;;;27.52;15.80;;;;;;;;;;5025175;28;20401;-77
2023/01/29 06:32:34;;;;;;;28.88;16.27;;;;;;;;;;5023726;28;20048;-76
2023/01/29 06:35:00;;;;;;;26.65;16.60;;;;;;;;;;5018347;28;20527;-77
2023/01/29 06:37:26;;;;;;;27.45;15.63;;;;;;;;;;5032583;28;20041;-76
2023/01/29 06:39:52;;;;;;;28.08;16.77;;;;;;;;;;5021574;28;20385;-76
2023/01/29 06:42:19;;;;;;;26.80;16.52;;;;;;;;;;5023863;28;20409;-76
2023/01/29 06:44:45;;;;;;;27.15;16.65;;;;;;;;;;5032620;28;20060;-76
2023/01/29 06:47:11;;;;;;;29.52;16.40;;;;;;;;;;5026471;28;20045;-76
2023/01/29 06:49:37;;;;;;;33.10;17.60;;;;;;;;;;5036174;28;20043;-76
2023/01/29 06:52:03;;;;;;;30.60;17.08;;;;;;;;;;5033861;28;20116;-76
2023/01/29 06:54:29;;;;;;;29.75;17.88;;;;;;;;;;5020028;28;20045;-76
2023/01/29 06:56:55;;;;;;;28.05;15.32;;;;;;;;;;5024334;28;20476;-76
2023/01/29 06:59:21;;;;;;;29.85;17.00;;;;;;;;;;5020904;28;20045;-76
2023/01/29 07:01:47;;;;;;;32.67;17.77;;;;;;;;;;5027616;28;20109;-77
2023/01/29 07:04:16;;;;;;;30.98;18.45;;;;;;;;;;5035631;28;20050;-76
2023/01/29 07:06:42;;;;;;;32.78;17.48;;;;;;;;;;5033794;28;20095;-76
2023/01/29 07:09:10;;;;;;;34.90;17.63;;;;;;;;;;5028039;28;20111;-76
2023/01/29 07:11:36;;;;;;;31.90;18.52;;;;;;;;;;5021993;28;20534;-76
2023/01/29 07:14:03;;;;;;;36.63;19.35;;;;;;;;;;5016871;28;20041;-76
2023/01/29 07:16:29;;;;;;;33.75;18.73;;;;;;;;;;5027622;28;20240;-76
2023/01/29 07:18:55;;;;;;;36.10;20.67;;;;;;;;;;5018668;28;20103;-76
2023/01/29 07:21:21;;;;;;;37.13;19.92;;;;;;;;;;5022820;28;20046;-76
2023/01/29 07:23:47;;;;;;;35.53;19.13;;;;;;;;;;5022748;28;20046;-76
2023/01/29 07:26:14;;;;;;;39.72;21.38;;;;;;;;;;5032316;28;20048;-76
2023/01/29 07:28:40;;;;;;;39.75;21.13;;;;;;;;;;5025080;28;20051;-76
2023/01/29 07:31:07;;;;;;;40.00;22.17;;;;;;;;;;5026559;28;20041;-77
2023/01/29 07:33:33;;;;;;;37.15;20.77;;;;;;;;;;5031872;28;20052;-76
2023/01/29 07:35:59;;;;;;;42.25;22.63;;;;;;;;;;5017325;28;20078;-76
2023/01/29 07:38:25;;;;;;;41.97;22.98;;;;;;;;;;5031206;28;20033;-76
2023/01/29 07:40:54;;;;;;;43.45;22.70;;;;;;;;;;5028999;28;20049;-76
2023/01/29 07:43:20;;;;;;;42.63;23.27;;;;;;;;;;5032327;28;20073;-76
2023/01/29 07:45:46;;;;;;;41.42;21.25;;;;;;;;;;5016353;28;20453;-76
2023/01/29 07:48:13;;;;;;;41.83;21.77;;;;;;;;;;5034510;28;20041;-77
2023/01/29 07:50:39;;;;;;;42.65;22.23;;;;;;;;;;5019598;28;20042;-77
2023/01/29 07:53:05;;;;;;;43.67;22.00;;;;;;;;;;5031042;28;20108;-76
2023/01/29 07:55:32;;;;;;;41.03;22.95;;;;;;;;;;5026284;28;20392;-76
2023/01/29 07:57:59;;;;;;;42.83;22.85;;;;;;;;;;5023850;28;20077;-77
2023/01/29 08:00:25;;;;;;;40.22;21.75;;;;;;;;;;5024175;28;20037;-79
2023/01/29 08:02:51;;;;;;;42.17;22.15;;;;;;;;;;5034059;28;20064;-77
2023/01/29 08:05:17;;;;;;;39.17;21.80;;;;;;;;;;5034737;28;20124;-76
2023/01/29 08:07:43;;;;;;;37.50;21.08;;;;;;;;;;5028933;28;20507;-76
2023/01/29 08:10:10;;;;;;;49.53;24.10;;;;;;;;;;5020666;28;20041;-77
2023/01/29 08:12:36;;;;;;;47.28;23.83;;;;;;;;;;5032104;28;20143;-76
2023/01/29 08:15:02;;;;;;;49.92;25.35;;;;;;;;;;5020917;28;20049;-76
2023/01/29 08:17:28;;;;;;;48.08;23.38;;;;;;;;;;5019312;28;20045;-76
2023/01/29 08:19:54;;;;;;;48.20;24.52;;;;;;;;;;5020800;28;20067;-76
2023/01/29 08:22:20;;;;;;;44.30;23.20;;;;;;;;;;5026338;28;20041;-76
2023/01/29 08:24:46;;;;;;;48.55;21.92;;;;;;;;;;5032943;28;20068;-75
2023/01/29 08:27:12;;;;;;;47.88;24.08;;;;;;;;;;5034725;28;20063;-76
2023/01/29 08:29:38;;;;;;;49.40;24.23;;;;;;;;;;5022399;28;20412;-76
2023/01/29 08:32:04;;;;;;;50.35;25.65;;;;;;;;;;5030816;28;20048;-76
2023/01/29 08:34:30;;;;;;;48.97;24.10;;;;;;;;;;5034436;28;20167;-76
2023/01/29 08:36:56;;;;;;;47.63;23.75;;;;;;;;;;5042729;28;20114;-76
2023/01/29 08:39:22;;;;;;;44.47;24.80;;;;;;;;;;5014457;28;20358;-76
2023/01/29 08:41:48;;;;;;;50.15;25.67;;;;;;;;;;5033165;28;20049;-76
2023/01/29 08:44:14;;;;;;;44.78;24.17;;;;;;;;;;5034431;28;20072;-76
2023/01/29 08:47:06;;;;;;;47.25;24.65;;;;;;;;;;5023634;28;20508;-75
2023/01/29 08:49:32;;;;;;;40.05;22.40;;;;;;;;;;5014420;28;20084;-76
2023/01/29 08:51:58;;;;;;;44.05;22.73;;;;;;;;;;5027326;28;20049;-76
2023/01/29 08:54:24;;;;;;;45.35;22.05;;;;;;;;;;5019867;28;20050;-75
2023/01/29 08:56:51;;;;;;;38.67;21.52;;;;;;;;;;5023873;28;20464;-76
2023/01/29 08:59:21;;;;;;;38.28;21.42;;;;;;;;;;5033412;28;20065;-76
2023/01/29 09:01:47;;;;;;;43.78;23.58;;;;;;;;;;5032179;28;20084;-76
2023/01/29 09:04:13;;;;;;;42.42;22.92;;;;;;;;;;5022057;28;20096;-76
2023/01/29 09:06:50;;;;;;;41.83;22.55;;;;;;;;;;5024561;28;20056;-76
2023/01/29 09:09:17;;;;;;;42.72;24.40;;;;;;;;;;5013561;28;20157;-76
2023/01/29 09:11:43;;;;;;;42.95;24.23;;;;;;;;;;5013909;28;20056;-76
2023/01/29 09:14:11;;;;;;;40.55;21.45;;;;;;;;;;5032692;28;20045;-76
2023/01/29 09:16:37;;;;;;;40.35;22.73;;;;;;;;;;5030811;28;20132;-76
2023/01/29 09:19:03;;;;;;;41.30;21.83;;;;;;;;;;5035355;28;20045;-76
2023/01/29 09:21:29;;;;;;;43.65;24.08;;;;;;;;;;5028590;28;20140;-76
2023/01/29 09:23:55;;;;;;;40.45;21.45;;;;;;;;;;5023218;28;20540;-76
2023/01/29 09:26:21;;;;;;;40.58;21.58;;;;;;;;;;5034058;28;20073;-76
2023/01/29 09:28:49;;;;;;;36.55;19.63;;;;;;;;;;5020265;28;20486;-76
2023/01/29 09:31:15;;;;;;;37.97;20.25;;;;;;;;;;5033645;28;20128;-76
2023/01/29 09:33:42;;;;;;;42.00;21.58;;;;;;;;;;5031699;28;20041;-76
2023/01/29 09:36:08;;;;;;;38.95;20.80;;;;;;;;;;5033395;28;20088;-76
2023/01/29 09:38:34;;;;;;;38.92;21.08;;;;;;;;;;5033408;28;20045;-76
2023/01/29 09:41:18;;;;;;;36.55;21.70;;;;;;;;;;5033314;28;20038;-76
2023/01/29 09:43:44;;;;;;;39.60;20.73;;;;;;;;;;5031065;28;20042;-76
2023/01/29 09:46:30;;;;;;;37.90;20.67;;;;;;;;;;5028749;28;20427;-76
2023/01/29 09:49:17;;;;;;;40.25;21.83;;;;;;;;;;5009503;28;20087;-76
2023/01/29 09:51:46;;;;;;;38.58;20.75;;;;;;;;;;5019642;28;20068;-75
2023/01/29 09:54:12;;;;;;;43.92;22.35;;;;;;;;;;5027524;28;20123;-75
2023/01/29 09:56:38;;;;;;;39.38;20.70;;;;;;;;;;5027097;28;20081;-75
2023/01/29 09:59:04;;;;;;;47.80;23.05;;;;;;;;;;5033257;28;20049;-75
2023/01/29 10:01:38;;;;;;;39.55;22.20;;;;;;;;;;5024524;28;20536;-75
2023/01/29 10:04:10;;;;;;;44.85;22.73;;;;;;;;;;5032631;28;20037;-75
2023/01/29 10:06:55;;;;;;;45.85;22.33;;;;;;;;;;5021255;28;20072;-75
2023/01/29 10:09:30;;;;;;;36.60;19.63;;;;;;;;;;5026924;28;20045;-75
2023/01/29 10:11:59;;;;;;;39.78;20.70;;;;;;;;;;5028209;28;20072;-75
2023/01/29 10:14:48;;;;;;;38.45;20.13;;;;;;;;;;5020886;28;20116;-75
2023/01/29 10:17:23;;;;;;;37.67;19.33;;;;;;;;;;4970431;28;20121;-75
2023/01/29 10:19:49;;;;;;;40.97;23.55;;;;;;;;;;4957249;28;20068;-75
2023/01/29 10:22:24;;;;;;;43.05;23.58;;;;;;;;;;4971852;28;20055;-75
2023/01/29 10:24:50;;;;;;;44.78;25.48;;;;;;;;;;4971591;28;20399;-74
2023/01/29 10:27:17;;;;;;;35.83;21.63;;;;;;;;;;4971231;28;20046;-74
2023/01/29 10:29:44;;;;;;;42.53;21.67;;;;;;;;;;4949050;28;20554;-74
2023/01/29 10:32:18;;;;;;;40.80;21.48;;;;;;;;;;4971620;28;20086;-74
2023/01/29 10:34:47;;;;;;;31.00;17.67;;;;;;;;;;4972993;28;20050;-74
2023/01/29 10:37:17;;;;;;;35.92;18.90;;;;;;;;;;4975213;28;20389;-75
2023/01/29 10:39:43;;;;;;;36.85;17.55;;;;;;;;;;4972157;28;20054;-74
2023/01/29 10:42:26;;;;;;;30.95;17.95;;;;;;;;;;4963937;28;20065;-75
2023/01/29 10:45:13;;;;;;;29.23;16.40;;;;;;;;;;4973507;28;20062;-75
2023/01/29 10:47:54;;;;;;;28.08;15.25;;;;;;;;;;4972982;28;20164;-75
2023/01/29 10:50:20;;;;;;;31.85;16.52;;;;;;;;;;4983288;28;20132;-75
2023/01/29 10:52:54;;;;;;;27.83;14.68;;;;;;;;;;4976900;28;20458;-76
2023/01/29 10:55:20;;;;;;;27.98;15.43;;;;;;;;;;5019222;28;20046;-76
2023/01/29 10:58:04;;;;;;;26.58;14.77;;;;;;;;;;5029821;28;20108;-76
2023/01/29 11:00:40;;;;;;;26.77;13.75;;;;;;;;;;5027854;28;20400;-76
2023/01/29 11:03:15;;;;;;;27.70;13.15;;;;;;;;;;5016171;28;20042;-76
2023/01/29 11:05:44;;;;;;;24.58;13.75;;;;;;;;;;5022619;28;20042;-76
2023/01/29 11:08:13;;;;;;;24.33;13.57;;;;;;;;;;5019203;28;20131;-77
2023/01/29 11:10:43;;;;;;;23.88;13.57;;;;;;;;;;5025791;28;20079;-77
2023/01/29 11:13:12;;;;;;;25.92;13.18;;;;;;;;;;5026979;28;20081;-76
2023/01/29 11:15:38;;;;;;;23.63;12.98;;;;;;;;;;5031154;28;20049;-80
2023/01/29 11:18:09;;;;;;;23.90;13.40;;;;;;;;;;5039507;28;20049;-76
2023/01/29 11:20:35;;;;;;;25.63;13.25;;;;;;;;;;5036092;28;20058;-76
2023/01/29 11:23:01;;;;;;;26.23;13.82;;;;;;;;;;5031027;28;20049;-79
2023/01/29 11:25:31;;;;;;;25.83;13.32;;;;;;;;;;5035630;28;20092;-76
2023/01/29 11:28:01;;;;;;;24.73;13.65;;;;;;;;;;5023334;28;20484;-75
2023/01/29 11:30:40;;;;;;;22.10;12.75;;;;;;;;;;5020612;28;20053;-75
2023/01/29 11:33:09;;;;;;;25.05;13.55;;;;;;;;;;5021926;28;20041;-75
2023/01/29 11:35:36;;;;;;;22.83;12.70;;;;;;;;;;5026958;28;20103;-75
2023/01/29 11:38:18;;;;;;;24.05;13.45;;;;;;;;;;5027593;28;20041;-75
2023/01/29 11:40:45;;;;;;;24.60;13.55;;;;;;;;;;5027352;28;20480;-75
2023/01/29 11:43:11;;;;;;;19.08;11.95;;;;;;;;;;5028999;28;20037;-75
2023/01/29 11:45:39;;;;;;;23.75;12.35;;;;;;;;;;5029541;28;20042;-75
2023/01/29 11:48:12;;;;;;;23.80;12.75;;;;;;;;;;5033370;28;20556;-75
2023/01/29 11:50:38;;;;;;;22.58;12.18;;;;;;;;;;5031689;28;20041;-75
2023/01/29 11:53:05;;;;;;;20.42;11.55;;;;;;;;;;5017044;28;20050;-79
2023/01/29 11:55:33;;;;;;;20.83;11.32;;;;;;;;;;5035069;28;20130;-76
2023/01/29 11:58:20;;;;;;;19.40;11.32;;;;;;;;;;5028180;28;20045;-76
2023/01/29 12:00:48;;;;;;;22.02;11.73;;;;;;;;;;5023604;28;20116;-76
2023/01/29 12:03:47;;;;;;;24.48;13.65;;;;;;;;;;5013349;28;20046;-77
2023/01/29 12:06:13;;;;;;;28.08;13.45;;;;;;;;;;5006637;28;20197;-76
2023/01/29 12:08:39;;;;;;;19.77;11.27;;;;;;;;;;5035608;28;20160;-76
2023/01/29 12:11:13;;;;;;;21.77;11.05;;;;;;;;;;5032971;28;20052;-76
2023/01/29 12:13:42;;;;;;;18.98;10.77;;;;;;;;;;5027867;28;20347;-76
2023/01/29 12:16:15;;;;;;;19.30;10.60;;;;;;;;;;5031084;28;20124;-76
2023/01/29 12:18:43;;;;;;;18.70;10.23;;;;;;;;;;5021612;28;20045;-76
2023/01/29 12:21:15;;;;;;;20.17;10.40;;;;;;;;;;5034654;28;20057;-76
2023/01/29 12:23:53;;;;;;;17.65;10.10;;;;;;;;;;5035283;28;20046;-76
2023/01/29 12:26:25;;;;;;;23.67;10.45;;;;;;;;;;5023793;28;20042;-76
2023/01/29 12:28:54;;;;;;;16.77;10.02;;;;;;;;;;5015469;28;20046;-76
2023/01/29 12:31:23;;;;;;;16.13;9.20;;;;;;;;;;5014874;28;20089;-76
2023/01/29 12:33:49;;;;;;;16.90;8.32;;;;;;;;;;5035352;28;20083;-76
2023/01/29 12:36:24;;;;;;;16.45;9.43;;;;;;;;;;5019974;28;20085;-76
2023/01/29 12:38:50;;;;;;;15.30;8.60;;;;;;;;;;5037732;28;20049;-76
2023/01/29 12:41:32;;;;;;;16.48;8.45;;;;;;;;;;5037089;28;20105;-76
2023/01/29 12:44:18;;;;;;;15.35;8.70;;;;;;;;;;5035407;28;20072;-76
2023/01/29 12:47:05;;;;;;;16.58;8.10;;;;;;;;;;5034492;28;20052;-77
2023/01/29 12:49:36;;;;;;;12.00;6.82;;;;;;;;;;5022903;28;20057;-76
2023/01/29 12:52:12;;;;;;;12.75;7.90;;;;;;;;;;5015505;28;20038;-77
2023/01/29 12:55:01;;;;;;;14.05;7.75;;;;;;;;;;5032012;28;20068;-77
2023/01/29 12:57:34;;;;;;;12.75;7.13;;;;;;;;;;5020930;28;20053;-78
2023/01/29 13:00:13;;;;;;;15.35;7.25;;;;;;;;;;5033465;28;20480;-77
2023/01/29 13:02:45;;;;;;;12.40;6.68;;;;;;;;;;5030327;28;20042;-77
2023/01/29 13:05:17;;;;;;;13.55;6.63;;;;;;;;;;5021012;28;20120;-77
2023/01/29 13:07:48;;;;;;;10.60;5.45;;;;;;;;;;5032776;28;20053;-77
2023/01/29 13:10:17;;;;;;;11.05;5.90;;;;;;;;;;5020861;28;20077;-77
2023/01/29 13:12:58;;;;;;;12.40;6.10;;;;;;;;;;5023508;28;20477;-77
2023/01/29 13:15:28;;;;;;;9.43;5.30;;;;;;;;;;5012571;28;20049;-77
2023/01/29 13:17:57;;;;;;;13.80;5.80;;;;;;;;;;5028751;28;20435;-77
2023/01/29 13:20:28;;;;;;;10.68;5.80;;;;;;;;;;5033451;28;20057;-78
2023/01/29 13:22:56;;;;;;;9.73;5.75;;;;;;;;;;5033546;28;20076;-78
2023/01/29 13:25:22;;;;;;;10.05;6.20;;;;;;;;;;5033238;28;20371;-78
2023/01/29 13:27:48;;;;;;;12.68;7.22;;;;;;;;;;5033302;28;20133;-78
2023/01/29 13:30:43;;;;;;;11.05;5.70;;;;;;;;;;5028793;28;20106;-78
2023/01/29 13:33:19;;;;;;;12.13;6.70;;;;;;;;;;5007886;28;20503;-78
2023/01/29 13:35:45;;;;;;;15.32;7.60;;;;;;;;;;5033404;28;20049;-78
2023/01/29 13:38:23;;;;;;;10.38;6.13;;;;;;;;;;5033075;28;20072;-78
2023/01/29 13:40:50;;;;;;;11.05;5.90;;;;;;;;;;5028533;28;20048;-78
2023/01/29 13:43:19;;;;;;;12.93;6.20;;;;;;;;;;5013428;28;20041;-78
2023/01/29 13:45:46;;;;;;;9.23;5.68;;;;;;;;;;5013467;28;20056;-77
2023/01/29 13:48:26;;;;;;;9.10;5.68;;;;;;;;;;5029130;28;20060;-78
2023/01/29 13:50:52;;;;;;;9.90;5.60;;;;;;;;;;5033144;28;20045;-78
2023/01/29 13:53:21;;;;;;;8.35;4.55;;;;;;;;;;5025673;28;20076;-78
2023/01/29 13:55:47;;;;;;;8.70;3.25;;;;;;;;;;5016861;28;20480;-78
2023/01/29 13:58:17;;;;;;;6.57;3.80;;;;;;;;;;5033035;28;20077;-78
2023/01/29 14:00:43;;;;;;;8.43;3.50;;;;;;;;;;5033128;28;20095;-77
2023/01/29 14:03:13;;;;;;;7.20;3.58;;;;;;;;;;5025513;28;20054;-78
2023/01/29 14:05:43;;;;;;;6.40;3.78;;;;;;;;;;5016456;28;21844;-77
2023/01/29 14:08:09;;;;;;;8.35;4.40;;;;;;;;;;5032260;28;20042;-77
2023/01/29 14:10:36;;;;;;;6.78;4.53;;;;;;;;;;5016189;28;20068;-77
2023/01/29 14:13:17;;;;;;;6.70;4.55;;;;;;;;;;5017499;28;20042;-78
2023/01/29 14:15:44;;;;;;;9.27;5.25;;;;;;;;;;5016991;28;20042;-77
2023/01/29 14:18:10;;;;;;;10.02;5.53;;;;;;;;;;5017457;28;20073;-77
2023/01/29 14:20:41;;;;;;;11.25;5.75;;;;;;;;;;5016535;28;20053;-78
2023/01/29 14:23:16;;;;;;;11.88;6.10;;;;;;;;;;5016789;28;20085;-77
2023/01/29 14:25:42;;;;;;;9.95;6.22;;;;;;;;;;5016741;28;20042;-78
2023/01/29 14:28:14;;;;;;;14.00;5.97;;;;;;;;;;5016787;28;20045;-78
2023/01/29 14:30:44;;;;;;;11.90;7.05;;;;;;;;;;5017146;28;20404;-78
2023/01/29 14:33:23;;;;;;;12.98;7.75;;;;;;;;;;5016456;28;20053;-78
2023/01/29 14:35:50;;;;;;;12.25;7.53;;;;;;;;;;5016323;28;20503;-78
2023/01/29 14:38:16;;;;;;;14.25;6.50;;;;;;;;;;5016663;28;20057;-78
2023/01/29 14:40:43;;;;;;;13.45;6.78;;;;;;;;;;5016546;28;20061;-78
2023/01/29 14:43:18;;;;;;;14.32;7.45;;;;;;;;;;5015260;28;20061;-78
2023/01/29 14:45:45;;;;;;;13.45;6.95;;;;;;;;;;5016263;28;20068;-78
2023/01/29 14:48:16;;;;;;;15.80;6.78;;;;;;;;;;5016484;28;20042;-78
2023/01/29 14:50:47;;;;;;;14.20;6.32;;;;;;;;;;4998638;28;20129;-78
2023/01/29 14:53:25;;;;;;;17.77;6.30;;;;;;;;;;5016517;28;20077;-78
2023/01/29 14:56:09;;;;;;;13.48;6.35;;;;;;;;;;5016288;28;20065;-78
2023/01/29 14:58:43;;;;;;;11.07;6.00;;;;;;;;;;5016383;28;20377;-78
2023/01/29 15:01:32;;;;;;;12.98;5.88;;;;;;;;;;5015109;28;20373;-78
2023/01/29 15:04:06;;;;;;;12.85;6.43;;;;;;;;;;5008411;28;20062;-78